sensor_id;sensor_type;location;lat;lon;timestamp;temperature;humidity
25556;DHT22;13447;57.174;-2.112;2023-06-14T00:00:02;15.30;1.00
25556;DHT22;13447;57.174;-2.112;2023-06-14T00:02:30;15.40;1.00
25556;DHT22;13447;57.174;-2.112;2023-06-14T00:04:57;15.40;1.00
25556;DHT22;13447;57.174;-2.112;2023-06-14T00:07:36;15.50;1.00
25556;DHT22;13447;57.174;-2.112;2023-06-14T00:10:03;15.50;1.00
25556;DHT22;13447;57.174;-2.112;2023-06-14T00:12:31;15.50;1.00
25556;DHT22;13447;57.174;-2.112;2023-06-14T00:14:57;15.50;1.00
25556;DHT22;13447;57.174;-2.112;2023-06-14T00:17:24;15.50;1.00
25556;DHT22;13447;57.174;-2.112;2023-06-14T00:19:59;15.50;1.00
25556;DHT22;13447;57.174;-2.112;2023-06-14T00:22:26;15.50;1.00
25556;DHT22;13447;57.174;-2.112;2023-06-14T00:24:55;15.50;1.00
25556;DHT22;13447;57.174;-2.112;2023-06-14T00:27:22;15.50;1.00
25556;DHT22;13447;57.174;-2.112;2023-06-14T00:29:49;15.50;1.00
25556;DHT22;13447;57.174;-2.112;2023-06-14T00:32:16;15.50;1.00
25556;DHT22;13447;57.174;-2.112;2023-06-14T00:34:42;15.50;1.00
25556;DHT22;13447;57.174;-2.112;2023-06-14T00:37:09;15.50;1.00
25556;DHT22;13447;57.174;-2.112;2023-06-14T00:39:36;15.40;1.00
25556;DHT22;13447;57.174;-2.112;2023-06-14T00:42:03;15.40;1.00
25556;DHT22;13447;57.174;-2.112;2023-06-14T00:44:30;15.50;1.00
25556;DHT22;13447;57.174;-2.112;2023-06-14T00:46:57;15.40;1.00
25556;DHT22;13447;57.174;-2.112;2023-06-14T00:49:24;15.40;1.00
25556;DHT22;13447;57.174;-2.112;2023-06-14T00:51:51;15.40;1.00
25556;DHT22;13447;57.174;-2.112;2023-06-14T00:54:18;15.40;1.00
25556;DHT22;13447;57.174;-2.112;2023-06-14T00:56:45;15.30;1.00
25556;DHT22;13447;57.174;-2.112;2023-06-14T00:59:12;15.30;1.00
25556;DHT22;13447;57.174;-2.112;2023-06-14T01:01:38;15.30;1.00
25556;DHT22;13447;57.174;-2.112;2023-06-14T01:04:06;15.30;1.00
25556;DHT22;13447;57.174;-2.112;2023-06-14T01:06:35;15.30;1.00
25556;DHT22;13447;57.174;-2.112;2023-06-14T01:11:41;15.30;1.00
25556;DHT22;13447;57.174;-2.112;2023-06-14T01:14:11;15.30;1.00
25556;DHT22;13447;57.174;-2.112;2023-06-14T01:16:39;15.30;1.00
25556;DHT22;13447;57.174;-2.112;2023-06-14T01:19:07;15.30;1.00
25556;DHT22;13447;57.174;-2.112;2023-06-14T01:21:38;15.30;1.00
25556;DHT22;13447;57.174;-2.112;2023-06-14T01:24:09;15.20;1.00
25556;DHT22;13447;57.174;-2.112;2023-06-14T01:26:37;15.30;1.00
25556;DHT22;13447;57.174;-2.112;2023-06-14T01:29:05;15.20;1.00
25556;DHT22;13447;57.174;-2.112;2023-06-14T01:31:32;15.20;1.00
25556;DHT22;13447;57.174;-2.112;2023-06-14T01:34:08;15.20;1.00
25556;DHT22;13447;57.174;-2.112;2023-06-14T01:36:35;15.10;1.00
25556;DHT22;13447;57.174;-2.112;2023-06-14T01:39:03;15.10;1.00
25556;DHT22;13447;57.174;-2.112;2023-06-14T01:41:30;15.10;1.00
25556;DHT22;13447;57.174;-2.112;2023-06-14T01:43:58;15.00;1.00
25556;DHT22;13447;57.174;-2.112;2023-06-14T01:46:25;15.00;1.00
25556;DHT22;13447;57.174;-2.112;2023-06-14T01:48:52;15.00;1.00
25556;DHT22;13447;57.174;-2.112;2023-06-14T01:51:19;15.00;1.00
25556;DHT22;13447;57.174;-2.112;2023-06-14T01:53:46;15.00;1.00
25556;DHT22;13447;57.174;-2.112;2023-06-14T01:56:13;14.90;1.00
25556;DHT22;13447;57.174;-2.112;2023-06-14T01:58:40;14.90;1.00
25556;DHT22;13447;57.174;-2.112;2023-06-14T02:01:07;14.80;1.00
25556;DHT22;13447;57.174;-2.112;2023-06-14T02:03:34;14.80;1.00
25556;DHT22;13447;57.174;-2.112;2023-06-14T02:06:00;14.80;1.00
25556;DHT22;13447;57.174;-2.112;2023-06-14T02:08:28;14.70;1.00
25556;DHT22;13447;57.174;-2.112;2023-06-14T02:10:55;14.70;1.00
25556;DHT22;13447;57.174;-2.112;2023-06-14T02:13:22;14.70;1.00
25556;DHT22;13447;57.174;-2.112;2023-06-14T02:15:48;14.70;1.00
25556;DHT22;13447;57.174;-2.112;2023-06-14T02:18:20;14.70;1.00
25556;DHT22;13447;57.174;-2.112;2023-06-14T02:20:47;14.70;1.00
25556;DHT22;13447;57.174;-2.112;2023-06-14T02:23:14;14.70;1.00
25556;DHT22;13447;57.174;-2.112;2023-06-14T02:25:41;14.60;1.00
25556;DHT22;13447;57.174;-2.112;2023-06-14T02:28:09;14.70;1.00
25556;DHT22;13447;57.174;-2.112;2023-06-14T02:30:36;14.60;1.00
25556;DHT22;13447;57.174;-2.112;2023-06-14T02:33:03;14.60;1.00
25556;DHT22;13447;57.174;-2.112;2023-06-14T02:35:31;14.60;1.00
25556;DHT22;13447;57.174;-2.112;2023-06-14T02:38:00;14.50;1.00
25556;DHT22;13447;57.174;-2.112;2023-06-14T02:40:27;14.60;1.00
25556;DHT22;13447;57.174;-2.112;2023-06-14T02:42:54;14.60;1.00
25556;DHT22;13447;57.174;-2.112;2023-06-14T02:45:21;14.60;1.00
25556;DHT22;13447;57.174;-2.112;2023-06-14T02:47:48;14.60;1.00
25556;DHT22;13447;57.174;-2.112;2023-06-14T02:50:15;14.50;1.00
25556;DHT22;13447;57.174;-2.112;2023-06-14T02:52:43;14.50;1.00
25556;DHT22;13447;57.174;-2.112;2023-06-14T02:55:11;14.50;1.00
25556;DHT22;13447;57.174;-2.112;2023-06-14T02:57:37;14.50;1.00
25556;DHT22;13447;57.174;-2.112;2023-06-14T03:00:04;14.50;1.00
25556;DHT22;13447;57.174;-2.112;2023-06-14T03:02:31;14.40;1.00
25556;DHT22;13447;57.174;-2.112;2023-06-14T03:04:58;14.40;1.00
25556;DHT22;13447;57.174;-2.112;2023-06-14T03:07:28;14.40;1.00
25556;DHT22;13447;57.174;-2.112;2023-06-14T03:09:56;14.30;1.00
25556;DHT22;13447;57.174;-2.112;2023-06-14T03:12:23;14.30;1.00
25556;DHT22;13447;57.174;-2.112;2023-06-14T03:14:50;14.30;1.00
25556;DHT22;13447;57.174;-2.112;2023-06-14T03:17:18;14.20;1.00
25556;DHT22;13447;57.174;-2.112;2023-06-14T03:19:46;14.20;1.00
25556;DHT22;13447;57.174;-2.112;2023-06-14T03:22:12;14.20;1.00
25556;DHT22;13447;57.174;-2.112;2023-06-14T03:24:39;14.20;1.00
25556;DHT22;13447;57.174;-2.112;2023-06-14T03:27:07;14.20;1.00
25556;DHT22;13447;57.174;-2.112;2023-06-14T03:29:36;14.20;1.00
25556;DHT22;13447;57.174;-2.112;2023-06-14T03:32:03;14.20;1.00
25556;DHT22;13447;57.174;-2.112;2023-06-14T03:34:30;14.10;1.00
25556;DHT22;13447;57.174;-2.112;2023-06-14T03:36:57;14.10;1.00
25556;DHT22;13447;57.174;-2.112;2023-06-14T03:39:24;14.10;1.00
25556;DHT22;13447;57.174;-2.112;2023-06-14T03:41:51;14.10;1.00
25556;DHT22;13447;57.174;-2.112;2023-06-14T03:44:18;14.10;1.00
25556;DHT22;13447;57.174;-2.112;2023-06-14T03:46:45;14.20;1.00
25556;DHT22;13447;57.174;-2.112;2023-06-14T03:49:13;14.20;1.00
25556;DHT22;13447;57.174;-2.112;2023-06-14T03:51:39;14.20;1.00
25556;DHT22;13447;57.174;-2.112;2023-06-14T03:54:07;14.20;1.00
25556;DHT22;13447;57.174;-2.112;2023-06-14T03:56:37;14.20;1.00
25556;DHT22;13447;57.174;-2.112;2023-06-14T03:59:03;14.20;1.00
25556;DHT22;13447;57.174;-2.112;2023-06-14T04:01:30;14.20;1.00
25556;DHT22;13447;57.174;-2.112;2023-06-14T04:03:57;14.20;1.00
25556;DHT22;13447;57.174;-2.112;2023-06-14T04:06:25;14.20;1.00
25556;DHT22;13447;57.174;-2.112;2023-06-14T04:08:59;14.10;1.00
25556;DHT22;13447;57.174;-2.112;2023-06-14T04:11:30;14.20;1.00
25556;DHT22;13447;57.174;-2.112;2023-06-14T04:13:58;14.20;1.00
25556;DHT22;13447;57.174;-2.112;2023-06-14T04:16:24;14.30;1.00
25556;DHT22;13447;57.174;-2.112;2023-06-14T04:18:51;14.30;1.00
25556;DHT22;13447;57.174;-2.112;2023-06-14T04:21:18;14.40;1.00
25556;DHT22;13447;57.174;-2.112;2023-06-14T04:23:45;14.50;1.00
25556;DHT22;13447;57.174;-2.112;2023-06-14T04:26:12;14.60;1.00
25556;DHT22;13447;57.174;-2.112;2023-06-14T04:28:39;14.60;1.00
25556;DHT22;13447;57.174;-2.112;2023-06-14T04:31:07;14.70;1.00
25556;DHT22;13447;57.174;-2.112;2023-06-14T04:33:37;14.80;1.00
25556;DHT22;13447;57.174;-2.112;2023-06-14T04:36:13;14.80;1.00
25556;DHT22;13447;57.174;-2.112;2023-06-14T04:38:39;14.90;1.00
25556;DHT22;13447;57.174;-2.112;2023-06-14T04:41:07;14.90;1.00
25556;DHT22;13447;57.174;-2.112;2023-06-14T04:43:38;15.00;1.00
25556;DHT22;13447;57.174;-2.112;2023-06-14T04:46:05;15.10;1.00
25556;DHT22;13447;57.174;-2.112;2023-06-14T04:48:32;15.20;1.00
25556;DHT22;13447;57.174;-2.112;2023-06-14T04:50:59;15.30;1.00
25556;DHT22;13447;57.174;-2.112;2023-06-14T04:53:26;15.40;1.00
25556;DHT22;13447;57.174;-2.112;2023-06-14T04:55:55;15.40;1.00
25556;DHT22;13447;57.174;-2.112;2023-06-14T04:58:22;15.50;1.00
25556;DHT22;13447;57.174;-2.112;2023-06-14T05:00:49;15.60;1.00
25556;DHT22;13447;57.174;-2.112;2023-06-14T05:03:15;15.70;1.00
25556;DHT22;13447;57.174;-2.112;2023-06-14T05:05:45;15.80;1.00
25556;DHT22;13447;57.174;-2.112;2023-06-14T05:08:12;15.80;1.00
25556;DHT22;13447;57.174;-2.112;2023-06-14T05:10:38;16.00;1.00
25556;DHT22;13447;57.174;-2.112;2023-06-14T05:13:05;16.10;1.00
25556;DHT22;13447;57.174;-2.112;2023-06-14T05:15:32;16.20;1.00
25556;DHT22;13447;57.174;-2.112;2023-06-14T05:17:59;16.30;1.00
25556;DHT22;13447;57.174;-2.112;2023-06-14T05:20:26;16.30;1.00
25556;DHT22;13447;57.174;-2.112;2023-06-14T05:22:53;16.40;1.00
25556;DHT22;13447;57.174;-2.112;2023-06-14T05:25:20;16.50;1.00
25556;DHT22;13447;57.174;-2.112;2023-06-14T05:27:47;16.50;99.90
25556;DHT22;13447;57.174;-2.112;2023-06-14T05:30:15;16.50;99.90
25556;DHT22;13447;57.174;-2.112;2023-06-14T05:32:42;16.50;99.90
25556;DHT22;13447;57.174;-2.112;2023-06-14T05:35:08;16.40;99.90
25556;DHT22;13447;57.174;-2.112;2023-06-14T05:37:35;16.40;99.90
25556;DHT22;13447;57.174;-2.112;2023-06-14T05:40:02;16.40;99.90
25556;DHT22;13447;57.174;-2.112;2023-06-14T05:42:32;16.40;99.90
25556;DHT22;13447;57.174;-2.112;2023-06-14T05:44:59;16.40;99.90
25556;DHT22;13447;57.174;-2.112;2023-06-14T05:47:26;16.40;99.90
25556;DHT22;13447;57.174;-2.112;2023-06-14T05:49:54;16.40;99.90
25556;DHT22;13447;57.174;-2.112;2023-06-14T05:52:21;16.40;99.90
25556;DHT22;13447;57.174;-2.112;2023-06-14T05:54:48;16.50;99.90
25556;DHT22;13447;57.174;-2.112;2023-06-14T05:57:16;16.40;99.90
25556;DHT22;13447;57.174;-2.112;2023-06-14T05:59:42;16.40;99.90
25556;DHT22;13447;57.174;-2.112;2023-06-14T06:02:09;16.50;99.90
25556;DHT22;13447;57.174;-2.112;2023-06-14T06:04:36;16.50;1.00
25556;DHT22;13447;57.174;-2.112;2023-06-14T06:07:03;16.50;1.00
25556;DHT22;13447;57.174;-2.112;2023-06-14T06:09:30;16.60;1.00
25556;DHT22;13447;57.174;-2.112;2023-06-14T06:11:57;16.60;1.00
25556;DHT22;13447;57.174;-2.112;2023-06-14T06:14:24;16.70;99.90
25556;DHT22;13447;57.174;-2.112;2023-06-14T06:16:51;16.80;99.90
25556;DHT22;13447;57.174;-2.112;2023-06-14T06:19:19;16.90;99.90
25556;DHT22;13447;57.174;-2.112;2023-06-14T06:21:46;17.00;99.90
25556;DHT22;13447;57.174;-2.112;2023-06-14T06:24:14;17.10;99.90
25556;DHT22;13447;57.174;-2.112;2023-06-14T06:26:40;17.20;99.90
25556;DHT22;13447;57.174;-2.112;2023-06-14T06:29:07;17.30;99.90
25556;DHT22;13447;57.174;-2.112;2023-06-14T06:31:34;17.40;99.90
25556;DHT22;13447;57.174;-2.112;2023-06-14T06:34:01;17.50;99.90
25556;DHT22;13447;57.174;-2.112;2023-06-14T06:36:28;17.60;99.90
25556;DHT22;13447;57.174;-2.112;2023-06-14T06:38:55;17.60;99.90
25556;DHT22;13447;57.174;-2.112;2023-06-14T06:41:21;17.70;99.90
25556;DHT22;13447;57.174;-2.112;2023-06-14T06:43:48;17.80;99.90
25556;DHT22;13447;57.174;-2.112;2023-06-14T06:46:15;18.10;99.90
25556;DHT22;13447;57.174;-2.112;2023-06-14T06:48:44;18.10;99.90
25556;DHT22;13447;57.174;-2.112;2023-06-14T06:51:11;18.30;99.90
25556;DHT22;13447;57.174;-2.112;2023-06-14T06:53:41;18.50;99.90
25556;DHT22;13447;57.174;-2.112;2023-06-14T06:56:14;18.70;99.90
25556;DHT22;13447;57.174;-2.112;2023-06-14T06:58:41;18.90;99.90
25556;DHT22;13447;57.174;-2.112;2023-06-14T07:01:07;19.10;99.90
25556;DHT22;13447;57.174;-2.112;2023-06-14T07:03:35;19.10;99.20
25556;DHT22;13447;57.174;-2.112;2023-06-14T07:06:02;19.30;92.60
25556;DHT22;13447;57.174;-2.112;2023-06-14T07:08:29;19.40;65.00
25556;DHT22;13447;57.174;-2.112;2023-06-14T07:10:56;19.60;23.40
25556;DHT22;13447;57.174;-2.112;2023-06-14T07:13:23;19.70;16.00
25556;DHT22;13447;57.174;-2.112;2023-06-14T07:15:50;19.80;1.00
25556;DHT22;13447;57.174;-2.112;2023-06-14T07:18:20;20.00;1.00
25556;DHT22;13447;57.174;-2.112;2023-06-14T07:20:46;20.00;1.00
25556;DHT22;13447;57.174;-2.112;2023-06-14T07:23:14;20.20;1.00
25556;DHT22;13447;57.174;-2.112;2023-06-14T07:25:40;20.10;1.00
25556;DHT22;13447;57.174;-2.112;2023-06-14T07:28:07;20.20;1.00
25556;DHT22;13447;57.174;-2.112;2023-06-14T07:30:35;20.30;1.00
25556;DHT22;13447;57.174;-2.112;2023-06-14T07:33:01;20.60;1.00
25556;DHT22;13447;57.174;-2.112;2023-06-14T07:35:28;20.60;1.00
25556;DHT22;13447;57.174;-2.112;2023-06-14T07:37:55;20.50;1.00
25556;DHT22;13447;57.174;-2.112;2023-06-14T07:40:22;20.70;1.00
25556;DHT22;13447;57.174;-2.112;2023-06-14T07:42:49;20.90;1.00
25556;DHT22;13447;57.174;-2.112;2023-06-14T07:45:17;21.00;1.00
25556;DHT22;13447;57.174;-2.112;2023-06-14T07:47:44;21.10;1.00
25556;DHT22;13447;57.174;-2.112;2023-06-14T07:50:12;21.20;1.00
25556;DHT22;13447;57.174;-2.112;2023-06-14T07:52:40;21.30;1.00
25556;DHT22;13447;57.174;-2.112;2023-06-14T07:55:06;21.30;1.00
25556;DHT22;13447;57.174;-2.112;2023-06-14T07:57:33;21.20;1.00
25556;DHT22;13447;57.174;-2.112;2023-06-14T08:00:00;21.00;1.00
25556;DHT22;13447;57.174;-2.112;2023-06-14T08:02:27;21.00;1.00
25556;DHT22;13447;57.174;-2.112;2023-06-14T08:04:54;21.00;1.00
25556;DHT22;13447;57.174;-2.112;2023-06-14T08:07:21;21.00;1.00
25556;DHT22;13447;57.174;-2.112;2023-06-14T08:09:48;21.20;1.00
25556;DHT22;13447;57.174;-2.112;2023-06-14T08:12:14;21.40;33.90
25556;DHT22;13447;57.174;-2.112;2023-06-14T08:14:42;21.60;1.00
25556;DHT22;13447;57.174;-2.112;2023-06-14T08:17:08;21.70;1.00
25556;DHT22;13447;57.174;-2.112;2023-06-14T08:19:35;21.80;4.10
25556;DHT22;13447;57.174;-2.112;2023-06-14T08:22:03;21.90;26.10
25556;DHT22;13447;57.174;-2.112;2023-06-14T08:24:30;22.10;1.00
25556;DHT22;13447;57.174;-2.112;2023-06-14T08:26:57;22.20;1.00
25556;DHT22;13447;57.174;-2.112;2023-06-14T08:29:24;22.40;1.00
25556;DHT22;13447;57.174;-2.112;2023-06-14T08:31:51;22.50;1.00
25556;DHT22;13447;57.174;-2.112;2023-06-14T08:34:17;22.40;1.00
25556;DHT22;13447;57.174;-2.112;2023-06-14T08:36:44;22.40;1.00
25556;DHT22;13447;57.174;-2.112;2023-06-14T08:39:11;22.70;30.10
25556;DHT22;13447;57.174;-2.112;2023-06-14T08:41:38;22.90;1.00
25556;DHT22;13447;57.174;-2.112;2023-06-14T08:44:05;23.00;1.00
25556;DHT22;13447;57.174;-2.112;2023-06-14T08:46:33;23.10;1.00
25556;DHT22;13447;57.174;-2.112;2023-06-14T08:49:01;23.20;1.00
25556;DHT22;13447;57.174;-2.112;2023-06-14T08:51:30;23.40;1.00
25556;DHT22;13447;57.174;-2.112;2023-06-14T08:54:00;23.50;1.00
25556;DHT22;13447;57.174;-2.112;2023-06-14T08:56:28;23.60;1.00
25556;DHT22;13447;57.174;-2.112;2023-06-14T08:58:56;23.90;1.00
25556;DHT22;13447;57.174;-2.112;2023-06-14T09:01:23;24.00;1.00
25556;DHT22;13447;57.174;-2.112;2023-06-14T09:03:50;24.10;1.00
25556;DHT22;13447;57.174;-2.112;2023-06-14T09:06:18;24.10;1.00
25556;DHT22;13447;57.174;-2.112;2023-06-14T09:08:46;24.20;1.00
25556;DHT22;13447;57.174;-2.112;2023-06-14T09:11:14;24.20;1.00
25556;DHT22;13447;57.174;-2.112;2023-06-14T09:13:42;24.40;1.00
25556;DHT22;13447;57.174;-2.112;2023-06-14T09:16:08;23.90;1.00
25556;DHT22;13447;57.174;-2.112;2023-06-14T09:18:39;24.20;1.00
25556;DHT22;13447;57.174;-2.112;2023-06-14T09:21:07;24.50;1.00
25556;DHT22;13447;57.174;-2.112;2023-06-14T09:23:38;24.30;1.00
25556;DHT22;13447;57.174;-2.112;2023-06-14T09:26:06;24.40;1.00
25556;DHT22;13447;57.174;-2.112;2023-06-14T09:28:33;24.50;1.00
25556;DHT22;13447;57.174;-2.112;2023-06-14T09:31:00;24.80;1.00
25556;DHT22;13447;57.174;-2.112;2023-06-14T09:33:27;24.80;1.00
25556;DHT22;13447;57.174;-2.112;2023-06-14T09:35:56;25.00;1.00
25556;DHT22;13447;57.174;-2.112;2023-06-14T09:38:24;25.10;1.00
25556;DHT22;13447;57.174;-2.112;2023-06-14T09:40:51;25.30;1.00
25556;DHT22;13447;57.174;-2.112;2023-06-14T09:43:18;25.70;1.00
25556;DHT22;13447;57.174;-2.112;2023-06-14T09:45:45;26.00;1.00
25556;DHT22;13447;57.174;-2.112;2023-06-14T09:48:13;26.10;1.00
25556;DHT22;13447;57.174;-2.112;2023-06-14T09:50:45;26.40;1.00
25556;DHT22;13447;57.174;-2.112;2023-06-14T09:53:12;26.40;1.00
25556;DHT22;13447;57.174;-2.112;2023-06-14T09:55:40;26.20;1.00
25556;DHT22;13447;57.174;-2.112;2023-06-14T09:58:08;26.30;1.00
25556;DHT22;13447;57.174;-2.112;2023-06-14T10:00:36;26.50;1.00
25556;DHT22;13447;57.174;-2.112;2023-06-14T10:03:14;26.30;1.00
25556;DHT22;13447;57.174;-2.112;2023-06-14T10:05:42;26.80;1.00
25556;DHT22;13447;57.174;-2.112;2023-06-14T10:08:10;26.70;1.00
25556;DHT22;13447;57.174;-2.112;2023-06-14T10:10:39;26.90;1.00
25556;DHT22;13447;57.174;-2.112;2023-06-14T10:13:07;26.50;1.00
25556;DHT22;13447;57.174;-2.112;2023-06-14T10:23:49;27.00;1.00
25556;DHT22;13447;57.174;-2.112;2023-06-14T10:26:20;26.60;1.00
25556;DHT22;13447;57.174;-2.112;2023-06-14T10:31:39;26.60;1.00
25556;DHT22;13447;57.174;-2.112;2023-06-14T10:34:06;26.30;1.00
25556;DHT22;13447;57.174;-2.112;2023-06-14T10:36:33;26.20;1.00
25556;DHT22;13447;57.174;-2.112;2023-06-14T10:39:05;26.20;1.00
25556;DHT22;13447;57.174;-2.112;2023-06-14T10:41:36;26.50;1.00
25556;DHT22;13447;57.174;-2.112;2023-06-14T10:46:39;27.10;1.00
25556;DHT22;13447;57.174;-2.112;2023-06-14T10:49:09;26.90;1.00
25556;DHT22;13447;57.174;-2.112;2023-06-14T10:51:41;26.40;1.00
25556;DHT22;13447;57.174;-2.112;2023-06-14T10:54:13;26.20;1.00
25556;DHT22;13447;57.174;-2.112;2023-06-14T10:56:51;26.20;1.00
25556;DHT22;13447;57.174;-2.112;2023-06-14T10:59:19;26.50;1.00
25556;DHT22;13447;57.174;-2.112;2023-06-14T11:01:52;26.60;1.00
25556;DHT22;13447;57.174;-2.112;2023-06-14T11:04:26;26.30;1.00
25556;DHT22;13447;57.174;-2.112;2023-06-14T11:07:00;26.70;1.00
25556;DHT22;13447;57.174;-2.112;2023-06-14T11:12:10;26.80;1.00
25556;DHT22;13447;57.174;-2.112;2023-06-14T11:14:38;26.60;1.00
25556;DHT22;13447;57.174;-2.112;2023-06-14T11:17:06;26.70;1.00
25556;DHT22;13447;57.174;-2.112;2023-06-14T11:19:33;26.80;1.00
25556;DHT22;13447;57.174;-2.112;2023-06-14T11:21:59;26.70;1.00
25556;DHT22;13447;57.174;-2.112;2023-06-14T11:24:26;26.40;1.00
25556;DHT22;13447;57.174;-2.112;2023-06-14T11:26:54;26.40;1.00
25556;DHT22;13447;57.174;-2.112;2023-06-14T11:29:23;26.40;1.00
25556;DHT22;13447;57.174;-2.112;2023-06-14T11:31:50;26.70;1.00
25556;DHT22;13447;57.174;-2.112;2023-06-14T11:34:17;27.30;1.00
25556;DHT22;13447;57.174;-2.112;2023-06-14T11:36:44;27.10;1.00
25556;DHT22;13447;57.174;-2.112;2023-06-14T11:39:12;26.70;1.00
25556;DHT22;13447;57.174;-2.112;2023-06-14T11:41:43;26.80;1.00
25556;DHT22;13447;57.174;-2.112;2023-06-14T11:44:11;27.40;1.00
25556;DHT22;13447;57.174;-2.112;2023-06-14T11:46:38;27.80;1.00
25556;DHT22;13447;57.174;-2.112;2023-06-14T11:49:06;28.10;1.00
25556;DHT22;13447;57.174;-2.112;2023-06-14T11:51:34;27.60;1.00
25556;DHT22;13447;57.174;-2.112;2023-06-14T11:54:02;27.40;1.00
25556;DHT22;13447;57.174;-2.112;2023-06-14T11:56:30;27.10;1.00
25556;DHT22;13447;57.174;-2.112;2023-06-14T11:58:58;27.10;1.00
25556;DHT22;13447;57.174;-2.112;2023-06-14T12:01:25;27.10;1.00
25556;DHT22;13447;57.174;-2.112;2023-06-14T12:03:53;27.00;1.00
25556;DHT22;13447;57.174;-2.112;2023-06-14T12:06:27;27.70;1.00
25556;DHT22;13447;57.174;-2.112;2023-06-14T12:09:03;28.30;1.00
25556;DHT22;13447;57.174;-2.112;2023-06-14T12:11:34;28.90;10.50
25556;DHT22;13447;57.174;-2.112;2023-06-14T12:14:05;29.00;7.80
25556;DHT22;13447;57.174;-2.112;2023-06-14T12:16:33;29.20;11.90
25556;DHT22;13447;57.174;-2.112;2023-06-14T12:19:00;29.20;1.00
25556;DHT22;13447;57.174;-2.112;2023-06-14T12:21:27;28.50;1.00
25556;DHT22;13447;57.174;-2.112;2023-06-14T12:23:55;28.00;1.00
25556;DHT22;13447;57.174;-2.112;2023-06-14T12:26:22;27.90;1.00
25556;DHT22;13447;57.174;-2.112;2023-06-14T12:28:51;27.60;1.00
25556;DHT22;13447;57.174;-2.112;2023-06-14T12:31:18;27.50;1.00
25556;DHT22;13447;57.174;-2.112;2023-06-14T12:33:46;27.50;1.00
25556;DHT22;13447;57.174;-2.112;2023-06-14T12:36:15;27.90;1.00
25556;DHT22;13447;57.174;-2.112;2023-06-14T12:38:43;27.60;1.00
25556;DHT22;13447;57.174;-2.112;2023-06-14T12:41:10;28.30;1.00
25556;DHT22;13447;57.174;-2.112;2023-06-14T12:43:37;28.60;1.00
25556;DHT22;13447;57.174;-2.112;2023-06-14T12:46:04;29.10;1.00
25556;DHT22;13447;57.174;-2.112;2023-06-14T12:48:31;29.10;1.00
25556;DHT22;13447;57.174;-2.112;2023-06-14T12:50:58;29.20;1.00
25556;DHT22;13447;57.174;-2.112;2023-06-14T12:53:25;28.70;1.00
25556;DHT22;13447;57.174;-2.112;2023-06-14T12:55:52;29.20;1.00
25556;DHT22;13447;57.174;-2.112;2023-06-14T12:58:18;28.50;1.00
25556;DHT22;13447;57.174;-2.112;2023-06-14T13:00:46;28.70;1.00
25556;DHT22;13447;57.174;-2.112;2023-06-14T13:03:13;29.10;1.00
25556;DHT22;13447;57.174;-2.112;2023-06-14T13:05:41;29.30;1.00
25556;DHT22;13447;57.174;-2.112;2023-06-14T13:08:09;28.50;1.00
25556;DHT22;13447;57.174;-2.112;2023-06-14T13:10:36;28.40;1.00
25556;DHT22;13447;57.174;-2.112;2023-06-14T13:13:03;28.20;1.00
25556;DHT22;13447;57.174;-2.112;2023-06-14T13:15:30;28.70;1.00
25556;DHT22;13447;57.174;-2.112;2023-06-14T13:17:57;28.50;1.00
25556;DHT22;13447;57.174;-2.112;2023-06-14T13:20:24;28.40;1.00
25556;DHT22;13447;57.174;-2.112;2023-06-14T13:22:51;28.20;1.00
25556;DHT22;13447;57.174;-2.112;2023-06-14T13:25:17;28.50;1.00
25556;DHT22;13447;57.174;-2.112;2023-06-14T13:27:44;29.00;1.00
25556;DHT22;13447;57.174;-2.112;2023-06-14T13:30:11;29.30;1.00
25556;DHT22;13447;57.174;-2.112;2023-06-14T13:32:38;28.50;1.00
25556;DHT22;13447;57.174;-2.112;2023-06-14T13:35:05;28.50;1.00
25556;DHT22;13447;57.174;-2.112;2023-06-14T13:37:32;28.40;1.00
25556;DHT22;13447;57.174;-2.112;2023-06-14T13:39:59;28.60;1.00
25556;DHT22;13447;57.174;-2.112;2023-06-14T13:42:27;29.10;1.00
25556;DHT22;13447;57.174;-2.112;2023-06-14T13:44:54;28.80;1.00
25556;DHT22;13447;57.174;-2.112;2023-06-14T13:47:20;28.30;1.00
25556;DHT22;13447;57.174;-2.112;2023-06-14T13:49:47;28.20;1.00
25556;DHT22;13447;57.174;-2.112;2023-06-14T13:52:14;28.00;1.00
25556;DHT22;13447;57.174;-2.112;2023-06-14T13:54:41;28.30;1.00
25556;DHT22;13447;57.174;-2.112;2023-06-14T13:57:08;28.50;1.00
25556;DHT22;13447;57.174;-2.112;2023-06-14T13:59:35;28.30;1.00
25556;DHT22;13447;57.174;-2.112;2023-06-14T14:02:02;28.00;1.00
25556;DHT22;13447;57.174;-2.112;2023-06-14T14:04:30;27.80;1.00
25556;DHT22;13447;57.174;-2.112;2023-06-14T14:06:57;27.90;1.00
25556;DHT22;13447;57.174;-2.112;2023-06-14T14:09:23;28.20;1.00
25556;DHT22;13447;57.174;-2.112;2023-06-14T14:11:50;27.80;1.00
25556;DHT22;13447;57.174;-2.112;2023-06-14T14:14:17;27.10;1.00
25556;DHT22;13447;57.174;-2.112;2023-06-14T14:16:44;27.20;1.00
25556;DHT22;13447;57.174;-2.112;2023-06-14T14:19:11;27.10;1.00
25556;DHT22;13447;57.174;-2.112;2023-06-14T14:21:38;27.00;1.00
25556;DHT22;13447;57.174;-2.112;2023-06-14T14:24:05;26.40;1.00
25556;DHT22;13447;57.174;-2.112;2023-06-14T14:26:32;26.00;1.00
25556;DHT22;13447;57.174;-2.112;2023-06-14T14:28:59;25.90;1.00
25556;DHT22;13447;57.174;-2.112;2023-06-14T14:31:26;25.90;1.00
25556;DHT22;13447;57.174;-2.112;2023-06-14T14:33:53;25.80;1.00
25556;DHT22;13447;57.174;-2.112;2023-06-14T14:36:19;25.30;1.00
25556;DHT22;13447;57.174;-2.112;2023-06-14T14:38:46;25.10;1.00
25556;DHT22;13447;57.174;-2.112;2023-06-14T14:41:13;24.80;1.00
25556;DHT22;13447;57.174;-2.112;2023-06-14T14:43:40;24.90;1.00
25556;DHT22;13447;57.174;-2.112;2023-06-14T14:46:07;25.60;1.00
25556;DHT22;13447;57.174;-2.112;2023-06-14T14:48:34;26.00;1.00
25556;DHT22;13447;57.174;-2.112;2023-06-14T14:51:01;26.10;1.00
25556;DHT22;13447;57.174;-2.112;2023-06-14T14:53:28;25.90;1.00
25556;DHT22;13447;57.174;-2.112;2023-06-14T14:55:55;25.20;1.00
25556;DHT22;13447;57.174;-2.112;2023-06-14T14:58:22;24.90;1.00
25556;DHT22;13447;57.174;-2.112;2023-06-14T15:00:49;24.80;1.00
25556;DHT22;13447;57.174;-2.112;2023-06-14T15:03:15;24.30;1.00
25556;DHT22;13447;57.174;-2.112;2023-06-14T15:05:42;24.40;1.00
25556;DHT22;13447;57.174;-2.112;2023-06-14T15:08:09;23.90;1.00
25556;DHT22;13447;57.174;-2.112;2023-06-14T15:10:39;23.80;1.00
25556;DHT22;13447;57.174;-2.112;2023-06-14T15:13:09;23.60;1.00
25556;DHT22;13447;57.174;-2.112;2023-06-14T15:15:36;23.40;1.00
25556;DHT22;13447;57.174;-2.112;2023-06-14T15:18:03;23.30;1.00
25556;DHT22;13447;57.174;-2.112;2023-06-14T15:20:31;23.40;1.00
25556;DHT22;13447;57.174;-2.112;2023-06-14T15:22:58;23.40;1.00
25556;DHT22;13447;57.174;-2.112;2023-06-14T15:25:26;23.30;1.00
25556;DHT22;13447;57.174;-2.112;2023-06-14T15:27:56;23.40;1.00
25556;DHT22;13447;57.174;-2.112;2023-06-14T15:30:23;23.50;1.00
25556;DHT22;13447;57.174;-2.112;2023-06-14T15:32:50;23.40;1.00
25556;DHT22;13447;57.174;-2.112;2023-06-14T15:35:17;23.50;1.00
25556;DHT22;13447;57.174;-2.112;2023-06-14T15:37:44;23.30;1.00
25556;DHT22;13447;57.174;-2.112;2023-06-14T15:40:11;23.10;1.00
25556;DHT22;13447;57.174;-2.112;2023-06-14T15:42:39;23.20;1.00
25556;DHT22;13447;57.174;-2.112;2023-06-14T15:45:05;23.10;1.00
25556;DHT22;13447;57.174;-2.112;2023-06-14T15:47:32;23.10;1.00
25556;DHT22;13447;57.174;-2.112;2023-06-14T15:49:59;23.10;1.00